Latest Weather Observations for Adelaide

IDS60801

Issued at 11:35 pm CST Thursday 24 July 2014 (issued every 30 minutes, with the page automatically refreshed every 10 minutes)

About weather observations | Map of weather stations | Latest weather observations for SA | Other Formats
Station Details ID: 023090 Name: KENT TOWN Lat: -34.92 Lon: 138.62 Height: 48.0 m
Data from the previous 72 hours. | See also: Recent months at Adelaide
Date/Time
CST
Temp
°C
App
Temp
°C
Dew
Point
Rel
Hum
%
Delta-T
°C
Wind Press
QNH
hPa
Press
MSL
hPa
Rain
since 9 am
mm
Dir
 
Spd
km/h
Gust
km/h
Spd
kts
Gust
kts
24/11:30pm 12.6 10.1 10.9 89 0.9 NW 15 26 8 14 1013.3 - 0.4
24/11:00pm 12.6 9.7 11.1 91 0.8 NW 17 24 9 13 1013.0 - 0.4
24/10:30pm 12.9 10.4 11.0 88 1.0 NW 15 26 8 14 1012.8 - 0.4
24/10:00pm 12.9 10.4 11.0 88 1.0 NW 15 24 8 13 1012.5 - 0.4
24/09:30pm 12.9 10.0 11.0 88 1.0 WNW 17 26 9 14 1012.4 - 0.4
24/09:00pm 13.0 10.0 10.7 86 1.2 WNW 17 28 9 15 1012.2 1012.3 0.4
24/08:30pm 12.9 9.9 10.8 87 1.1 NW 17 24 9 13 1012.1 - 0.4
24/08:00pm 13.1 9.7 10.6 85 1.3 WNW 19 32 10 17 1011.8 - 0.4
24/07:30pm 13.3 9.3 10.4 82 1.5 NW 22 37 12 20 1011.2 - 0.4
24/07:00pm 13.4 10.3 10.3 81 1.6 NNW 17 26 9 14 1010.6 - 0.4
24/06:30pm 13.5 10.8 10.4 81 1.6 NNW 15 22 8 12 1010.4 - 0.4
24/06:00pm 13.6 11.3 10.5 81 1.6 NNW 13 20 7 11 1010.1 1010.2 0.4
24/05:30pm 13.7 11.1 10.7 82 1.6 NW 15 22 8 12 1009.9 - 0.4
24/05:00pm 14.1 10.8 10.9 81 1.7 WNW 19 30 10 16 1009.4 - 0.4
24/04:30pm 14.2 10.0 11.0 81 1.7 WNW 24 41 13 22 1009.2 - 0.4
24/04:00pm 14.2 9.6 11.0 81 1.7 WNW 26 39 14 21 1008.8 - 0.4
24/03:30pm 13.6 9.6 11.9 89 0.9 NW 24 37 13 20 1008.3 - 0.4
24/03:00pm 14.0 9.3 10.6 80 1.8 NNW 26 37 14 20 1007.9 1008.0 0.2
24/02:30pm 13.9 10.7 11.3 84 1.4 NNW 19 32 10 17 1007.6 - 0.2
24/02:00pm 14.1 10.0 10.1 77 2.1 NNW 22 41 12 22 1007.5 - 0.2
24/01:30pm 14.8 10.7 10.0 73 2.5 NNW 22 37 12 20 1007.5 - 0.2
24/01:00pm 15.1 11.1 10.4 73 2.5 NW 22 35 12 19 1007.7 - 0.2
24/12:30pm 14.8 10.1 10.6 76 2.2 NW 26 39 14 21 1007.8 - 0.2
24/12:00pm 13.8 9.3 10.2 79 1.9 NW 24 35 13 19 1008.2 1008.3 0.2
24/11:30am 13.3 9.8 10.8 85 1.3 NNW 20 32 11 17 1008.4 - 0.2
24/11:00am 12.2 8.2 10.5 89 0.9 NNW 22 35 12 19 1008.5 - 0.2
24/10:30am 12.1 8.1 10.4 89 0.9 NNW 22 35 12 19 1008.3 - 0.2
24/10:00am 12.4 9.0 10.7 89 0.9 NW 19 28 10 15 1008.1 - 0.2
24/09:30am 11.6 8.6 10.6 94 0.5 NW 17 28 9 15 1007.8 - 0.2
24/09:00am 11.2 8.2 10.6 96 0.3 NW 17 30 9 16 1007.3 1007.4 16.2
24/08:30am 11.3 8.3 10.5 95 0.4 NNW 17 26 9 14 1006.8 - 15.4
24/08:00am 11.3 8.2 10.3 94 0.5 NNW 17 28 9 15 1006.5 - 14.6
24/07:30am 11.3 8.3 10.5 95 0.4 NNW 17 26 9 14 1006.0 - 14.6
24/07:00am 11.2 7.8 10.6 96 0.3 N 19 32 10 17 1005.5 - 14.4
24/06:30am 10.9 8.2 10.3 96 0.3 N 15 24 8 13 1005.0 - 14.2
24/06:00am 10.8 7.6 10.0 95 0.4 NNE 17 28 9 15 1004.9 1005.0 14.2
24/05:30am 10.9 7.6 9.7 92 0.6 N 17 30 9 16 1005.1 - 13.6
24/05:00am 10.6 7.4 9.8 95 0.4 N 17 28 9 15 1005.2 - 13.4
24/04:30am 10.2 7.2 9.4 95 0.4 NNE 15 24 8 13 1004.9 - 13.0
24/04:00am 10.1 6.7 9.1 93 0.5 NNE 17 28 9 15 1005.0 - 12.4
24/03:30am 10.1 6.3 8.9 92 0.6 NE 19 28 10 15 1005.3 - 12.0
24/03:00am 10.3 6.4 8.7 90 0.8 NNE 19 32 10 17 1005.7 1005.8 11.6
24/02:32am 12.1 6.0 6.4 68 2.7 NNE 28 50 15 27 1005.8 - 10.8
24/02:30am 12.3 6.8 6.0 65 3.0 N 24 35 13 19 1005.9 - 10.8
24/02:00am 11.9 7.8 6.4 69 2.6 NE 17 26 9 14 1006.0 - 10.8
24/01:30am 11.3 7.7 6.9 74 2.1 NNE 15 26 8 14 1006.6 - 10.6
24/01:00am 11.7 6.4 6.9 72 2.3 NE 24 41 13 22 1007.0 - 10.4
24/12:30am 12.3 6.9 6.2 66 2.9 NE 24 41 13 22 1007.3 - 10.0
24/12:00am 12.8 7.3 5.8 62 3.3 NE 24 39 13 21 1007.8 1007.9 9.8
 
Date/Time
CST
Temp
°C
App
Temp
°C
Dew
Point
Rel
Hum
%
Delta-T
°C
Wind Press
QNH
hPa
Press
MSL
hPa
Rain
since 9 am
mm
Dir
 
Spd
km/h
Gust
km/h
Spd
kts
Gust
kts
23/11:30pm 13.1 7.9 5.4 59 3.6 NE 22 46 12 25 1008.4 - 9.8
23/11:17pm 13.6 7.1 4.5 54 4.2 NE 28 50 15 27 1008.4 - 9.8
23/11:00pm 13.0 7.3 4.8 57 3.8 NE 24 48 13 26 1008.5 - 9.8
23/10:35pm 12.4 6.0 5.3 62 3.3 ENE 28 46 15 25 1009.2 - 9.8
23/10:30pm 12.4 5.9 4.8 60 3.5 NE 28 43 15 23 1009.4 - 9.8
23/10:17pm 12.3 5.5 5.2 62 3.3 NE 30 48 16 26 1009.6 - 9.8
23/10:00pm 11.9 5.9 5.4 64 3.0 ENE 26 44 14 24 1009.9 - 9.8
23/09:41pm 11.6 5.4 6.1 69 2.6 NE 28 46 15 25 1010.4 - 9.8
23/09:30pm 11.3 5.9 6.2 71 2.4 ENE 24 43 13 23 1010.5 - 9.8
23/09:03pm 11.1 5.1 6.9 75 2.0 NE 28 52 15 28 1011.2 - 9.6
23/09:00pm 10.9 5.7 7.1 77 1.8 ENE 24 52 13 28 1011.2 1011.3 9.6
23/08:30pm 10.9 6.1 7.4 79 1.7 NE 22 33 12 18 1011.8 - 9.2
23/08:00pm 10.9 6.1 7.4 79 1.7 NE 22 33 12 18 1012.0 - 8.4
23/07:30pm 10.2 6.2 8.1 87 1.0 NE 19 28 10 15 1012.3 - 8.0
23/07:00pm 10.5 6.8 7.8 83 1.3 ENE 17 33 9 18 1012.5 - 5.8
23/06:30pm 10.5 7.6 8.0 84 1.2 ENE 13 22 7 12 - - 4.4
23/06:00pm 11.1 8.4 7.4 78 1.8 NNE 11 20 6 11 1012.8 1012.8 2.8
23/05:30pm 13.0 8.3 5.0 58 3.7 NE 19 35 10 19 1011.8 - 1.2
23/05:00pm 14.0 8.3 2.8 47 5.0 NE 22 33 12 18 1011.4 - 1.0
23/04:30pm 14.2 9.1 3.1 47 5.0 NNE 19 30 10 16 1011.6 - 1.0
23/04:00pm 14.1 9.2 4.1 51 4.6 NE 19 30 10 16 1011.4 - 1.0
23/03:30pm 14.5 8.6 5.9 56 4.1 NNE 26 39 14 21 1011.8 - 1.0
23/03:00pm 15.4 10.5 5.3 51 4.8 NE 20 39 11 21 1011.4 1011.5 1.0
23/02:30pm 13.8 9.3 7.0 63 3.3 ENE 20 33 11 18 1011.3 - 1.0
23/02:00pm 12.5 8.9 8.5 76 2.0 ENE 17 26 9 14 1012.3 - 1.0
23/01:57pm 12.5 9.0 8.9 79 1.8 ENE 17 30 9 16 1012.4 - 1.0
23/01:30pm 11.9 9.9 8.7 81 1.6 NE 9 15 5 8 1014.4 - 0.8
23/01:00pm 12.3 9.5 7.1 70 2.5 NE 11 17 6 9 1015.2 - 0.0
23/12:30pm 13.9 9.8 4.3 52 4.4 NNE 15 26 8 14 1015.7 - 0.0
23/12:00pm 14.8 10.1 3.3 46 5.2 N 17 26 9 14 1016.5 1016.6 0.0
23/11:30am 15.7 10.7 1.6 38 6.2 N 17 30 9 16 1017.2 - 0.0
23/11:00am 15.4 10.3 0.8 37 6.3 NNE 17 24 9 13 1017.8 - 0.0
23/10:30am 15.4 10.7 1.1 38 6.2 NNE 15 20 8 11 1017.9 - 0.0
23/10:00am 15.0 10.2 0.1 36 6.3 NE 15 20 8 11 1017.9 - 0.0
23/09:30am 14.5 9.7 0.0 37 6.1 NE 15 22 8 12 1017.9 - 0.0
23/09:00am 14.7 10.9 -0.4 35 6.3 NNE 9 15 5 8 1017.8 1017.9 0.0
23/08:30am 14.6 9.7 -0.2 36 6.2 ENE 15 20 8 11 1017.5 - 0.0
23/08:00am 14.4 10.3 -0.5 36 6.2 NE 11 15 6 8 1017.6 - 0.0
23/07:30am 14.1 10.0 0.0 38 5.9 NE 11 19 6 10 1017.8 - 0.0
23/07:00am 13.7 9.7 0.7 41 5.5 NE 11 17 6 9 1017.9 - 0.0
23/06:30am 13.9 9.8 -0.3 37 5.9 NE 11 17 6 9 1017.9 - 0.0
23/06:00am 14.0 9.5 -0.5 37 6.0 NE 13 22 7 12 1017.7 1017.8 0.0
23/05:30am 13.7 8.9 0.1 39 5.7 NE 15 20 8 11 1017.6 - 0.0
23/05:00am 13.7 9.2 0.0 39 5.7 NE 13 22 7 12 1017.9 - 0.0
23/04:30am 13.4 9.0 0.2 40 5.5 NE 13 20 7 11 1018.0 - 0.0
23/04:00am 13.5 9.1 0.1 40 5.6 NE 13 20 7 11 1018.4 - 0.0
23/03:30am 13.6 9.2 0.6 41 5.5 ENE 13 22 7 12 1018.6 - 0.0
23/03:00am 13.7 8.5 0.0 39 5.7 NE 17 24 9 13 1018.7 1018.8 0.0
23/02:30am 13.5 8.3 0.4 40 5.5 NE 17 26 9 14 1019.1 - 0.0
23/02:00am 13.3 9.0 1.1 43 5.2 NE 13 20 7 11 1019.7 - 0.0
23/01:30am 13.2 8.5 0.9 43 5.2 NE 15 26 8 14 1019.6 - 0.0
23/01:00am 13.1 8.8 1.1 44 5.1 ENE 13 24 7 13 1019.5 - 0.0
23/12:30am 13.4 8.7 0.9 42 5.3 ENE 15 24 8 13 1020.1 - 0.0
23/12:00am 13.5 8.8 0.7 41 5.4 NE 15 20 8 11 1020.4 1020.5 0.0
 
Date/Time
CST
Temp
°C
App
Temp
°C
Dew
Point
Rel
Hum
%
Delta-T
°C
Wind Press
QNH
hPa
Press
MSL
hPa
Rain
since 9 am
mm
Dir
 
Spd
km/h
Gust
km/h
Spd
kts
Gust
kts
22/11:30pm 13.7 9.4 1.0 42 5.4 NE 13 20 7 11 1020.8 - 0.0
22/11:00pm 13.5 9.3 1.7 44 5.1 ENE 13 20 7 11 1020.7 - 0.0
22/10:30pm 13.7 9.4 1.0 42 5.4 ENE 13 20 7 11 1020.8 - 0.0
22/10:00pm 13.9 9.6 0.7 40 5.6 ENE 13 20 7 11 1020.9 - 0.0
22/09:30pm 13.7 9.4 0.7 41 5.5 ENE 13 20 7 11 1021.0 - 0.0
22/09:00pm 13.3 9.4 1.1 43 5.2 ENE 11 20 6 11 1021.2 1021.3 0.0
22/08:30pm 12.2 8.5 2.5 51 4.2 E 11 13 6 7 1021.2 - 0.0
22/08:00pm 12.0 8.9 3.4 55 3.8 E 9 13 5 7 1021.2 - 0.0
22/07:30pm 12.2 8.8 3.9 57 3.7 E 11 15 6 8 1021.3 - 0.0
22/07:00pm 12.5 9.6 4.9 60 3.5 E 9 11 5 6 1021.4 - 0.0
22/06:30pm 13.6 10.3 4.4 53 4.2 ENE 11 15 6 8 1021.3 - 0.0
22/06:00pm 14.1 11.5 4.3 51 4.5 ENE 7 11 4 6 1021.2 1021.3 0.0
22/05:30pm 15.8 12.6 3.3 43 5.7 NE 9 13 5 7 1021.3 - 0.0
22/05:00pm 17.1 13.8 2.2 36 6.7 NNE 9 15 5 8 1020.9 - 0.0
22/04:30pm 17.8 13.1 0.7 31 7.5 NE 15 20 8 11 1020.7 - 0.0
22/04:00pm 18.2 13.7 0.0 29 7.9 N 13 20 7 11 1020.9 - 0.0
22/03:30pm 18.4 14.7 2.1 33 7.4 NNE 11 19 6 10 1021.0 - 0.0
22/03:00pm 18.5 14.6 1.3 31 7.7 NNE 11 20 6 11 1021.0 1021.1 0.0
22/02:30pm 18.7 14.3 0.2 28 8.1 NNE 13 24 7 13 1021.1 - 0.0
22/02:00pm 18.8 14.0 0.4 29 8.1 NNE 15 20 8 11 1021.1 - 0.0
22/01:30pm 18.5 13.5 -0.9 27 8.3 NNE 15 22 8 12 1021.4 - 0.0
22/01:00pm 18.3 13.4 -0.6 28 8.1 NNE 15 20 8 11 1021.8 - 0.0
22/12:30pm 18.1 13.2 -0.6 28 8.0 N 15 22 8 12 1022.3 - 0.0
22/12:00pm 17.7 14.0 2.2 35 7.0 NNW 11 17 6 9 1023.0 1023.1 0.0
22/11:30am 17.6 14.3 4.5 42 6.2 NW 11 17 6 9 1023.5 - 0.0
22/11:00am 17.1 13.7 1.9 36 6.8 N 9 13 5 7 1023.9 - 0.0
22/10:30am 16.2 12.4 2.0 38 6.3 N 11 17 6 9 1024.2 - 0.0
22/10:00am 15.1 12.6 3.7 46 5.2 N 6 9 3 5 1024.2 - 0.0
22/09:30am 12.8 11.6 4.4 56 3.8 CALM 0 0 0 0 1024.2 - 0.0
22/09:00am 9.6 8.6 5.4 75 1.9 CALM 0 0 0 0 1024.1 1024.2 0.0
22/08:30am 6.7 5.5 4.6 86 0.9 CALM 0 0 0 0 1024.0 - 0.0
22/08:00am 4.3 2.8 3.1 92 0.5 CALM 0 0 0 0 1023.9 - 0.0
22/07:30am 3.9 2.4 2.9 93 0.4 CALM 0 0 0 0 1023.9 - 0.0
22/07:00am 3.8 2.3 2.8 93 0.4 CALM 0 0 0 0 1023.6 - 0.0
22/06:30am 3.8 2.2 2.5 91 0.5 CALM 0 0 0 0 1023.2 - 0.0
22/06:00am 3.9 2.4 2.9 93 0.4 CALM 0 0 0 0 1023.0 1023.1 0.0
22/05:30am 4.2 2.7 3.2 93 0.4 CALM 0 0 0 0 1022.7 - 0.0
22/05:00am 4.2 2.7 3.2 93 0.4 CALM 0 0 0 0 1022.9 - 0.0
22/04:30am 4.3 2.9 3.3 93 0.4 CALM 0 0 0 0 1022.8 - 0.0
22/04:00am 4.6 3.2 3.6 93 0.4 CALM 0 0 0 0 1022.7 - 0.0
22/03:30am 4.6 3.2 3.6 93 0.4 CALM 0 0 0 0 1022.6 - 0.0
22/03:00am 4.9 3.5 3.7 92 0.5 CALM 0 0 0 0 1022.7 1022.8 0.0
22/02:30am 5.0 3.6 3.8 92 0.5 CALM 0 0 0 0 1022.8 - 0.0
22/02:00am 5.2 3.8 3.8 91 0.6 CALM 0 0 0 0 1022.8 - 0.0
22/01:30am 5.4 4.1 4.0 91 0.6 CALM 0 0 0 0 1022.9 - 0.0
22/01:00am 5.5 4.2 4.1 91 0.6 CALM 0 0 0 0 1022.9 - 0.0
22/12:30am 5.8 4.5 4.2 89 0.7 CALM 0 0 0 0 1023.1 - 0.0
22/12:00am 6.1 4.8 4.2 88 0.8 CALM 0 0 0 0 1023.1 1023.2 0.0

Other Formats:

Comma delimited format used in spreadsheet applications
http://www.bom.gov.au/fwo/IDS60801/IDS60801.94675.axf

JavaScript Object Notation format (JSON) in row-major order
http://www.bom.gov.au/fwo/IDS60801/IDS60801.94675.json